sensor_id;sensor_type;location;lat;lon;timestamp;temperature;humidity
41756;DHT22;27435;48.480;9.258;2023-06-10T00:01:00;19.10;76.90
41756;DHT22;27435;48.480;9.258;2023-06-10T00:03:26;19.00;77.30
41756;DHT22;27435;48.480;9.258;2023-06-10T00:05:52;19.10;77.50
41756;DHT22;27435;48.480;9.258;2023-06-10T00:08:18;19.10;77.60
41756;DHT22;27435;48.480;9.258;2023-06-10T00:10:45;19.00;77.70
41756;DHT22;27435;48.480;9.258;2023-06-10T00:13:11;19.00;78.00
41756;DHT22;27435;48.480;9.258;2023-06-10T00:15:37;19.00;78.50
41756;DHT22;27435;48.480;9.258;2023-06-10T00:18:03;19.00;78.40
41756;DHT22;27435;48.480;9.258;2023-06-10T00:20:30;19.00;78.70
41756;DHT22;27435;48.480;9.258;2023-06-10T00:22:57;19.00;78.20
41756;DHT22;27435;48.480;9.258;2023-06-10T00:25:24;18.80;77.90
41756;DHT22;27435;48.480;9.258;2023-06-10T00:27:51;18.50;79.00
41756;DHT22;27435;48.480;9.258;2023-06-10T00:30:17;18.50;79.00
41756;DHT22;27435;48.480;9.258;2023-06-10T00:32:42;18.30;79.80
41756;DHT22;27435;48.480;9.258;2023-06-10T00:35:08;18.30;80.30
41756;DHT22;27435;48.480;9.258;2023-06-10T00:37:34;18.30;80.30
41756;DHT22;27435;48.480;9.258;2023-06-10T00:40:04;18.20;80.50
41756;DHT22;27435;48.480;9.258;2023-06-10T00:42:30;18.10;80.90
41756;DHT22;27435;48.480;9.258;2023-06-10T00:44:55;18.00;81.30
41756;DHT22;27435;48.480;9.258;2023-06-10T00:47:21;17.90;82.00
41756;DHT22;27435;48.480;9.258;2023-06-10T00:49:48;17.80;82.80
41756;DHT22;27435;48.480;9.258;2023-06-10T00:52:15;17.80;82.60
41756;DHT22;27435;48.480;9.258;2023-06-10T00:54:42;17.50;84.00
41756;DHT22;27435;48.480;9.258;2023-06-10T00:57:08;17.60;83.80
41756;DHT22;27435;48.480;9.258;2023-06-10T00:59:34;17.50;84.20
41756;DHT22;27435;48.480;9.258;2023-06-10T01:01:59;17.60;84.10
41756;DHT22;27435;48.480;9.258;2023-06-10T01:04:26;17.40;84.40
41756;DHT22;27435;48.480;9.258;2023-06-10T01:07:25;17.20;85.00
41756;DHT22;27435;48.480;9.258;2023-06-10T01:09:59;17.10;86.20
41756;DHT22;27435;48.480;9.258;2023-06-10T01:12:37;17.20;85.90
41756;DHT22;27435;48.480;9.258;2023-06-10T01:15:05;17.20;86.50
41756;DHT22;27435;48.480;9.258;2023-06-10T01:17:31;17.20;86.40
41756;DHT22;27435;48.480;9.258;2023-06-10T01:19:57;17.10;86.70
41756;DHT22;27435;48.480;9.258;2023-06-10T01:22:27;17.10;86.50
41756;DHT22;27435;48.480;9.258;2023-06-10T01:24:55;16.90;87.00
41756;DHT22;27435;48.480;9.258;2023-06-10T01:27:27;16.80;87.40
41756;DHT22;27435;48.480;9.258;2023-06-10T01:30:15;16.80;87.90
41756;DHT22;27435;48.480;9.258;2023-06-10T01:32:46;16.90;87.90
41756;DHT22;27435;48.480;9.258;2023-06-10T01:35:13;16.80;87.60
41756;DHT22;27435;48.480;9.258;2023-06-10T01:37:41;16.70;88.70
41756;DHT22;27435;48.480;9.258;2023-06-10T01:40:09;16.70;89.00
41756;DHT22;27435;48.480;9.258;2023-06-10T01:42:36;16.80;89.10
41756;DHT22;27435;48.480;9.258;2023-06-10T01:45:02;16.50;90.00
41756;DHT22;27435;48.480;9.258;2023-06-10T01:47:27;16.40;90.50
41756;DHT22;27435;48.480;9.258;2023-06-10T01:49:53;16.40;90.60
41756;DHT22;27435;48.480;9.258;2023-06-10T01:52:19;16.20;91.80
41756;DHT22;27435;48.480;9.258;2023-06-10T01:54:44;16.00;92.10
41756;DHT22;27435;48.480;9.258;2023-06-10T01:57:10;16.00;91.80
41756;DHT22;27435;48.480;9.258;2023-06-10T01:59:36;15.90;92.10
41756;DHT22;27435;48.480;9.258;2023-06-10T02:02:03;15.80;93.20
41756;DHT22;27435;48.480;9.258;2023-06-10T02:04:29;15.90;92.60
41756;DHT22;27435;48.480;9.258;2023-06-10T02:06:55;16.00;92.40
41756;DHT22;27435;48.480;9.258;2023-06-10T02:09:21;16.10;92.70
41756;DHT22;27435;48.480;9.258;2023-06-10T02:11:48;15.90;93.10
41756;DHT22;27435;48.480;9.258;2023-06-10T02:14:14;15.80;94.00
41756;DHT22;27435;48.480;9.258;2023-06-10T02:16:40;15.70;93.80
41756;DHT22;27435;48.480;9.258;2023-06-10T02:19:06;15.60;94.90
41756;DHT22;27435;48.480;9.258;2023-06-10T02:21:32;15.50;95.20
41756;DHT22;27435;48.480;9.258;2023-06-10T02:24:00;15.50;95.40
41756;DHT22;27435;48.480;9.258;2023-06-10T02:26:26;15.50;95.60
41756;DHT22;27435;48.480;9.258;2023-06-10T02:28:52;15.50;95.50
41756;DHT22;27435;48.480;9.258;2023-06-10T02:31:18;15.40;95.50
41756;DHT22;27435;48.480;9.258;2023-06-10T02:33:44;15.30;96.60
41756;DHT22;27435;48.480;9.258;2023-06-10T02:36:10;15.20;97.20
41756;DHT22;27435;48.480;9.258;2023-06-10T02:38:39;15.10;99.00
41756;DHT22;27435;48.480;9.258;2023-06-10T02:41:06;15.10;99.00
41756;DHT22;27435;48.480;9.258;2023-06-10T02:43:31;15.10;98.90
41756;DHT22;27435;48.480;9.258;2023-06-10T02:45:57;15.00;98.90
41756;DHT22;27435;48.480;9.258;2023-06-10T02:48:27;14.90;99.00
41756;DHT22;27435;48.480;9.258;2023-06-10T02:50:53;14.80;99.00
41756;DHT22;27435;48.480;9.258;2023-06-10T02:53:18;15.00;99.00
41756;DHT22;27435;48.480;9.258;2023-06-10T02:55:44;14.90;99.00
41756;DHT22;27435;48.480;9.258;2023-06-10T02:58:10;15.00;99.00
41756;DHT22;27435;48.480;9.258;2023-06-10T03:00:35;15.10;99.00
41756;DHT22;27435;48.480;9.258;2023-06-10T03:03:03;15.20;99.00
41756;DHT22;27435;48.480;9.258;2023-06-10T03:05:29;15.10;99.00
41756;DHT22;27435;48.480;9.258;2023-06-10T03:07:55;15.00;99.00
41756;DHT22;27435;48.480;9.258;2023-06-10T03:10:20;14.80;99.00
41756;DHT22;27435;48.480;9.258;2023-06-10T03:12:46;14.80;99.00
41756;DHT22;27435;48.480;9.258;2023-06-10T03:15:12;14.70;99.00
41756;DHT22;27435;48.480;9.258;2023-06-10T03:17:38;14.80;99.00
41756;DHT22;27435;48.480;9.258;2023-06-10T03:20:04;14.80;99.00
41756;DHT22;27435;48.480;9.258;2023-06-10T03:22:31;14.70;99.00
41756;DHT22;27435;48.480;9.258;2023-06-10T03:24:57;14.60;99.00
41756;DHT22;27435;48.480;9.258;2023-06-10T03:27:22;14.50;99.00
41756;DHT22;27435;48.480;9.258;2023-06-10T03:29:48;14.40;99.00
41756;DHT22;27435;48.480;9.258;2023-06-10T03:32:14;14.60;99.00
41756;DHT22;27435;48.480;9.258;2023-06-10T03:34:40;14.50;99.00
41756;DHT22;27435;48.480;9.258;2023-06-10T03:37:06;14.50;99.00
41756;DHT22;27435;48.480;9.258;2023-06-10T03:39:32;14.50;99.00
41756;DHT22;27435;48.480;9.258;2023-06-10T03:41:58;14.40;99.00
41756;DHT22;27435;48.480;9.258;2023-06-10T03:44:24;14.40;99.00
41756;DHT22;27435;48.480;9.258;2023-06-10T03:46:51;14.30;99.00
41756;DHT22;27435;48.480;9.258;2023-06-10T03:49:17;14.40;99.00
41756;DHT22;27435;48.480;9.258;2023-06-10T03:51:43;14.40;99.00
41756;DHT22;27435;48.480;9.258;2023-06-10T03:54:08;14.30;99.00
41756;DHT22;27435;48.480;9.258;2023-06-10T03:56:35;14.10;99.00
41756;DHT22;27435;48.480;9.258;2023-06-10T03:59:00;14.10;99.00
41756;DHT22;27435;48.480;9.258;2023-06-10T04:01:26;14.30;99.00
41756;DHT22;27435;48.480;9.258;2023-06-10T04:03:53;14.40;99.00
41756;DHT22;27435;48.480;9.258;2023-06-10T04:06:19;14.50;99.00
41756;DHT22;27435;48.480;9.258;2023-06-10T04:08:46;14.70;99.00
41756;DHT22;27435;48.480;9.258;2023-06-10T04:11:13;14.60;99.00
41756;DHT22;27435;48.480;9.258;2023-06-10T04:13:38;14.50;99.00
41756;DHT22;27435;48.480;9.258;2023-06-10T04:16:04;14.30;99.00
41756;DHT22;27435;48.480;9.258;2023-06-10T04:18:30;14.30;99.00
41756;DHT22;27435;48.480;9.258;2023-06-10T04:20:55;14.30;99.00
41756;DHT22;27435;48.480;9.258;2023-06-10T04:23:22;14.50;99.00
41756;DHT22;27435;48.480;9.258;2023-06-10T04:25:48;14.60;99.00
41756;DHT22;27435;48.480;9.258;2023-06-10T04:28:13;14.40;99.00
41756;DHT22;27435;48.480;9.258;2023-06-10T04:30:39;14.30;99.00
41756;DHT22;27435;48.480;9.258;2023-06-10T04:33:05;14.20;99.00
41756;DHT22;27435;48.480;9.258;2023-06-10T04:35:32;14.20;99.00
41756;DHT22;27435;48.480;9.258;2023-06-10T04:37:57;14.30;99.00
41756;DHT22;27435;48.480;9.258;2023-06-10T04:40:23;14.40;99.00
41756;DHT22;27435;48.480;9.258;2023-06-10T04:42:49;14.60;99.00
41756;DHT22;27435;48.480;9.258;2023-06-10T04:45:15;14.80;99.00
41756;DHT22;27435;48.480;9.258;2023-06-10T04:47:40;15.00;99.00
41756;DHT22;27435;48.480;9.258;2023-06-10T04:50:06;15.10;99.00
41756;DHT22;27435;48.480;9.258;2023-06-10T04:52:32;15.00;99.00
41756;DHT22;27435;48.480;9.258;2023-06-10T04:54:59;15.00;99.00
41756;DHT22;27435;48.480;9.258;2023-06-10T04:57:24;15.10;99.00
41756;DHT22;27435;48.480;9.258;2023-06-10T04:59:52;15.10;99.00
41756;DHT22;27435;48.480;9.258;2023-06-10T05:02:17;15.10;99.00
41756;DHT22;27435;48.480;9.258;2023-06-10T05:04:43;15.10;99.00
41756;DHT22;27435;48.480;9.258;2023-06-10T05:07:08;15.20;99.00
41756;DHT22;27435;48.480;9.258;2023-06-10T05:09:34;15.30;99.00
41756;DHT22;27435;48.480;9.258;2023-06-10T05:12:01;15.50;99.00
41756;DHT22;27435;48.480;9.258;2023-06-10T05:14:28;15.80;99.00
41756;DHT22;27435;48.480;9.258;2023-06-10T05:16:53;15.90;99.00
41756;DHT22;27435;48.480;9.258;2023-06-10T05:19:19;15.90;99.00
41756;DHT22;27435;48.480;9.258;2023-06-10T05:21:45;15.90;99.00
41756;DHT22;27435;48.480;9.258;2023-06-10T05:24:11;16.10;99.00
41756;DHT22;27435;48.480;9.258;2023-06-10T05:26:37;16.40;99.00
41756;DHT22;27435;48.480;9.258;2023-06-10T05:29:04;16.70;98.10
41756;DHT22;27435;48.480;9.258;2023-06-10T05:31:30;17.20;96.70
41756;DHT22;27435;48.480;9.258;2023-06-10T05:33:55;17.60;94.10
41756;DHT22;27435;48.480;9.258;2023-06-10T05:36:21;18.00;93.10
41756;DHT22;27435;48.480;9.258;2023-06-10T05:38:47;18.80;90.50
41756;DHT22;27435;48.480;9.258;2023-06-10T05:41:12;20.00;86.70
41756;DHT22;27435;48.480;9.258;2023-06-10T05:43:38;20.60;83.50
41756;DHT22;27435;48.480;9.258;2023-06-10T05:46:04;20.90;81.90
41756;DHT22;27435;48.480;9.258;2023-06-10T05:48:29;21.70;79.90
41756;DHT22;27435;48.480;9.258;2023-06-10T05:50:55;22.40;77.30
41756;DHT22;27435;48.480;9.258;2023-06-10T05:53:21;22.30;75.90
41756;DHT22;27435;48.480;9.258;2023-06-10T05:55:46;21.80;77.60
41756;DHT22;27435;48.480;9.258;2023-06-10T05:58:13;22.40;75.80
41756;DHT22;27435;48.480;9.258;2023-06-10T06:00:39;23.10;73.40
41756;DHT22;27435;48.480;9.258;2023-06-10T06:03:09;23.60;72.00
41756;DHT22;27435;48.480;9.258;2023-06-10T06:05:36;23.70;71.00
41756;DHT22;27435;48.480;9.258;2023-06-10T06:08:06;24.00;69.40
41756;DHT22;27435;48.480;9.258;2023-06-10T06:10:32;24.20;68.70
41756;DHT22;27435;48.480;9.258;2023-06-10T06:13:02;24.70;67.70
41756;DHT22;27435;48.480;9.258;2023-06-10T06:15:28;25.10;66.70
41756;DHT22;27435;48.480;9.258;2023-06-10T06:17:53;25.20;65.60
41756;DHT22;27435;48.480;9.258;2023-06-10T06:20:20;25.50;64.90
41756;DHT22;27435;48.480;9.258;2023-06-10T06:22:45;25.40;65.50
41756;DHT22;27435;48.480;9.258;2023-06-10T06:25:11;25.70;64.30
41756;DHT22;27435;48.480;9.258;2023-06-10T06:27:37;24.80;66.40
41756;DHT22;27435;48.480;9.258;2023-06-10T06:30:03;25.30;64.90
41756;DHT22;27435;48.480;9.258;2023-06-10T06:32:29;25.20;65.70
41756;DHT22;27435;48.480;9.258;2023-06-10T06:34:55;25.20;65.10
41756;DHT22;27435;48.480;9.258;2023-06-10T06:37:22;25.40;65.00
41756;DHT22;27435;48.480;9.258;2023-06-10T06:39:53;25.20;65.20
41756;DHT22;27435;48.480;9.258;2023-06-10T06:42:19;25.00;66.70
41756;DHT22;27435;48.480;9.258;2023-06-10T06:44:45;25.60;65.30
41756;DHT22;27435;48.480;9.258;2023-06-10T06:47:11;26.20;63.90
41756;DHT22;27435;48.480;9.258;2023-06-10T06:49:37;26.60;62.20
41756;DHT22;27435;48.480;9.258;2023-06-10T06:52:03;26.50;62.80
41756;DHT22;27435;48.480;9.258;2023-06-10T06:54:29;25.70;64.90
41756;DHT22;27435;48.480;9.258;2023-06-10T06:56:54;25.80;65.00
41756;DHT22;27435;48.480;9.258;2023-06-10T06:59:20;26.30;64.10
41756;DHT22;27435;48.480;9.258;2023-06-10T07:01:46;26.00;65.00
41756;DHT22;27435;48.480;9.258;2023-06-10T07:04:14;25.90;64.80
41756;DHT22;27435;48.480;9.258;2023-06-10T07:06:39;26.40;64.80
41756;DHT22;27435;48.480;9.258;2023-06-10T07:09:05;25.70;66.10
41756;DHT22;27435;48.480;9.258;2023-06-10T07:11:31;23.80;71.60
41756;DHT22;27435;48.480;9.258;2023-06-10T07:13:57;23.50;73.20
41756;DHT22;27435;48.480;9.258;2023-06-10T07:16:23;23.80;72.70
41756;DHT22;27435;48.480;9.258;2023-06-10T07:18:48;24.00;71.20
41756;DHT22;27435;48.480;9.258;2023-06-10T07:21:14;23.60;72.60
41756;DHT22;27435;48.480;9.258;2023-06-10T07:23:43;23.10;74.20
41756;DHT22;27435;48.480;9.258;2023-06-10T07:26:10;22.80;75.60
41756;DHT22;27435;48.480;9.258;2023-06-10T07:28:40;22.60;75.80
41756;DHT22;27435;48.480;9.258;2023-06-10T07:31:06;22.20;77.80
41756;DHT22;27435;48.480;9.258;2023-06-10T07:33:32;22.30;77.60
41756;DHT22;27435;48.480;9.258;2023-06-10T07:35:57;22.50;77.10
41756;DHT22;27435;48.480;9.258;2023-06-10T07:38:24;22.90;75.80
41756;DHT22;27435;48.480;9.258;2023-06-10T07:40:50;23.20;74.90
41756;DHT22;27435;48.480;9.258;2023-06-10T07:43:16;22.90;74.80
41756;DHT22;27435;48.480;9.258;2023-06-10T07:45:43;22.50;76.60
41756;DHT22;27435;48.480;9.258;2023-06-10T07:48:09;22.60;76.10
41756;DHT22;27435;48.480;9.258;2023-06-10T07:50:35;22.40;77.40
41756;DHT22;27435;48.480;9.258;2023-06-10T07:53:01;22.10;78.40
41756;DHT22;27435;48.480;9.258;2023-06-10T07:55:26;22.00;79.20
41756;DHT22;27435;48.480;9.258;2023-06-10T07:57:53;22.20;78.10
41756;DHT22;27435;48.480;9.258;2023-06-10T08:00:19;22.20;78.70
41756;DHT22;27435;48.480;9.258;2023-06-10T08:02:46;22.00;79.20
41756;DHT22;27435;48.480;9.258;2023-06-10T08:05:11;22.30;79.10
41756;DHT22;27435;48.480;9.258;2023-06-10T08:07:39;22.30;78.20
41756;DHT22;27435;48.480;9.258;2023-06-10T08:10:06;22.20;79.40
41756;DHT22;27435;48.480;9.258;2023-06-10T08:12:33;22.10;79.10
41756;DHT22;27435;48.480;9.258;2023-06-10T08:14:59;22.10;79.40
41756;DHT22;27435;48.480;9.258;2023-06-10T08:17:25;22.20;78.90
41756;DHT22;27435;48.480;9.258;2023-06-10T08:19:50;22.20;79.80
41756;DHT22;27435;48.480;9.258;2023-06-10T08:22:16;22.40;78.80
41756;DHT22;27435;48.480;9.258;2023-06-10T08:24:42;22.40;78.40
41756;DHT22;27435;48.480;9.258;2023-06-10T08:27:07;22.50;78.70
41756;DHT22;27435;48.480;9.258;2023-06-10T08:29:33;22.50;78.40
41756;DHT22;27435;48.480;9.258;2023-06-10T08:31:59;22.40;78.80
41756;DHT22;27435;48.480;9.258;2023-06-10T08:34:25;22.60;78.30
41756;DHT22;27435;48.480;9.258;2023-06-10T08:36:51;22.70;76.60
41756;DHT22;27435;48.480;9.258;2023-06-10T08:39:19;22.80;77.10
41756;DHT22;27435;48.480;9.258;2023-06-10T08:42:05;22.90;77.10
41756;DHT22;27435;48.480;9.258;2023-06-10T08:44:35;22.90;76.90
41756;DHT22;27435;48.480;9.258;2023-06-10T08:47:08;22.70;77.00
41756;DHT22;27435;48.480;9.258;2023-06-10T08:49:38;22.70;76.80
41756;DHT22;27435;48.480;9.258;2023-06-10T08:52:07;22.80;77.30
41756;DHT22;27435;48.480;9.258;2023-06-10T08:54:33;23.20;76.40
41756;DHT22;27435;48.480;9.258;2023-06-10T08:57:04;23.30;75.80
41756;DHT22;27435;48.480;9.258;2023-06-10T08:59:31;23.10;74.50
41756;DHT22;27435;48.480;9.258;2023-06-10T09:01:58;23.70;74.00
41756;DHT22;27435;48.480;9.258;2023-06-10T09:04:24;24.00;72.70
41756;DHT22;27435;48.480;9.258;2023-06-10T09:06:51;24.10;70.20
41756;DHT22;27435;48.480;9.258;2023-06-10T09:09:18;24.20;70.00
41756;DHT22;27435;48.480;9.258;2023-06-10T09:11:45;24.40;71.00
41756;DHT22;27435;48.480;9.258;2023-06-10T09:14:11;24.70;67.20
41756;DHT22;27435;48.480;9.258;2023-06-10T09:16:38;24.40;67.00
41756;DHT22;27435;48.480;9.258;2023-06-10T09:19:05;24.30;67.00
41756;DHT22;27435;48.480;9.258;2023-06-10T09:21:34;24.40;67.80
41756;DHT22;27435;48.480;9.258;2023-06-10T09:23:59;24.10;67.40
41756;DHT22;27435;48.480;9.258;2023-06-10T09:26:29;24.30;67.70
41756;DHT22;27435;48.480;9.258;2023-06-10T09:29:08;24.20;67.30
41756;DHT22;27435;48.480;9.258;2023-06-10T09:31:38;24.00;67.70
41756;DHT22;27435;48.480;9.258;2023-06-10T09:34:09;23.70;69.40
41756;DHT22;27435;48.480;9.258;2023-06-10T09:36:35;24.10;68.50
41756;DHT22;27435;48.480;9.258;2023-06-10T09:39:02;24.40;67.70
41756;DHT22;27435;48.480;9.258;2023-06-10T09:41:35;24.60;67.00
41756;DHT22;27435;48.480;9.258;2023-06-10T09:44:01;24.50;67.00
41756;DHT22;27435;48.480;9.258;2023-06-10T09:46:31;24.60;66.00
41756;DHT22;27435;48.480;9.258;2023-06-10T09:48:59;24.40;65.50
41756;DHT22;27435;48.480;9.258;2023-06-10T09:51:25;24.10;66.00
41756;DHT22;27435;48.480;9.258;2023-06-10T09:53:51;24.30;65.10
41756;DHT22;27435;48.480;9.258;2023-06-10T09:56:18;24.40;65.60
41756;DHT22;27435;48.480;9.258;2023-06-10T09:58:44;24.70;63.90
41756;DHT22;27435;48.480;9.258;2023-06-10T10:01:14;25.10;63.10
41756;DHT22;27435;48.480;9.258;2023-06-10T10:03:50;25.20;63.40
41756;DHT22;27435;48.480;9.258;2023-06-10T10:06:18;25.60;63.60
41756;DHT22;27435;48.480;9.258;2023-06-10T10:08:45;26.00;61.90
41756;DHT22;27435;48.480;9.258;2023-06-10T10:11:11;26.10;61.20
41756;DHT22;27435;48.480;9.258;2023-06-10T10:13:37;26.10;61.00
41756;DHT22;27435;48.480;9.258;2023-06-10T10:16:22;25.70;61.90
41756;DHT22;27435;48.480;9.258;2023-06-10T10:18:52;25.50;63.60
41756;DHT22;27435;48.480;9.258;2023-06-10T10:21:23;25.70;63.10
41756;DHT22;27435;48.480;9.258;2023-06-10T10:24:09;26.00;62.50
41756;DHT22;27435;48.480;9.258;2023-06-10T10:26:38;26.50;61.10
41756;DHT22;27435;48.480;9.258;2023-06-10T10:29:16;26.50;60.40
41756;DHT22;27435;48.480;9.258;2023-06-10T10:31:42;26.80;60.40
41756;DHT22;27435;48.480;9.258;2023-06-10T10:34:43;26.40;61.20
41756;DHT22;27435;48.480;9.258;2023-06-10T10:37:05;26.30;61.00
41756;DHT22;27435;48.480;9.258;2023-06-10T10:39:33;25.90;62.30
41756;DHT22;27435;48.480;9.258;2023-06-10T10:42:00;25.90;62.40
41756;DHT22;27435;48.480;9.258;2023-06-10T10:44:27;25.80;62.70
41756;DHT22;27435;48.480;9.258;2023-06-10T10:46:53;25.90;63.10
41756;DHT22;27435;48.480;9.258;2023-06-10T10:49:20;25.90;62.30
41756;DHT22;27435;48.480;9.258;2023-06-10T10:51:58;25.80;62.40
41756;DHT22;27435;48.480;9.258;2023-06-10T10:54:37;26.00;61.20
41756;DHT22;27435;48.480;9.258;2023-06-10T10:59:57;26.40;61.50
41756;DHT22;27435;48.480;9.258;2023-06-10T11:02:44;26.10;61.40
41756;DHT22;27435;48.480;9.258;2023-06-10T11:05:12;26.20;61.70
41756;DHT22;27435;48.480;9.258;2023-06-10T11:07:38;26.10;61.80
41756;DHT22;27435;48.480;9.258;2023-06-10T11:10:11;26.00;62.40
41756;DHT22;27435;48.480;9.258;2023-06-10T11:12:42;26.10;61.50
41756;DHT22;27435;48.480;9.258;2023-06-10T11:15:08;26.10;61.70
41756;DHT22;27435;48.480;9.258;2023-06-10T11:17:34;26.30;61.50
41756;DHT22;27435;48.480;9.258;2023-06-10T11:19:59;26.70;60.70
41756;DHT22;27435;48.480;9.258;2023-06-10T11:22:25;26.60;61.30
41756;DHT22;27435;48.480;9.258;2023-06-10T11:24:51;26.40;63.10
41756;DHT22;27435;48.480;9.258;2023-06-10T11:27:20;25.90;62.30
41756;DHT22;27435;48.480;9.258;2023-06-10T11:32:33;26.00;62.50
41756;DHT22;27435;48.480;9.258;2023-06-10T11:35:00;25.80;63.40
41756;DHT22;27435;48.480;9.258;2023-06-10T11:37:27;26.00;61.40
41756;DHT22;27435;48.480;9.258;2023-06-10T11:39:56;26.00;61.40
41756;DHT22;27435;48.480;9.258;2023-06-10T11:42:23;25.90;61.70
41756;DHT22;27435;48.480;9.258;2023-06-10T11:44:54;25.80;61.40
41756;DHT22;27435;48.480;9.258;2023-06-10T11:47:20;25.80;62.10
41756;DHT22;27435;48.480;9.258;2023-06-10T11:49:56;26.00;62.40
41756;DHT22;27435;48.480;9.258;2023-06-10T11:52:31;25.70;62.40
41756;DHT22;27435;48.480;9.258;2023-06-10T11:54:59;25.90;62.30
41756;DHT22;27435;48.480;9.258;2023-06-10T11:57:24;26.00;62.80
41756;DHT22;27435;48.480;9.258;2023-06-10T11:59:50;26.00;62.10
41756;DHT22;27435;48.480;9.258;2023-06-10T12:02:16;26.00;61.90
41756;DHT22;27435;48.480;9.258;2023-06-10T12:04:42;26.00;62.50
41756;DHT22;27435;48.480;9.258;2023-06-10T12:07:07;25.80;62.50
41756;DHT22;27435;48.480;9.258;2023-06-10T12:09:33;25.90;61.30
41756;DHT22;27435;48.480;9.258;2023-06-10T12:12:04;26.10;62.10
41756;DHT22;27435;48.480;9.258;2023-06-10T12:15:09;26.20;61.30
41756;DHT22;27435;48.480;9.258;2023-06-10T12:20:04;26.20;60.90
41756;DHT22;27435;48.480;9.258;2023-06-10T12:22:40;26.60;59.90
41756;DHT22;27435;48.480;9.258;2023-06-10T12:25:07;27.10;59.50
41756;DHT22;27435;48.480;9.258;2023-06-10T12:27:34;27.20;58.80
41756;DHT22;27435;48.480;9.258;2023-06-10T12:30:01;27.40;58.30
41756;DHT22;27435;48.480;9.258;2023-06-10T12:32:43;27.30;58.40
41756;DHT22;27435;48.480;9.258;2023-06-10T12:35:11;26.90;60.40
41756;DHT22;27435;48.480;9.258;2023-06-10T12:37:38;26.70;60.30
41756;DHT22;27435;48.480;9.258;2023-06-10T12:40:05;27.00;58.60
41756;DHT22;27435;48.480;9.258;2023-06-10T12:42:32;27.60;58.70
41756;DHT22;27435;48.480;9.258;2023-06-10T12:44:59;28.10;55.90
41756;DHT22;27435;48.480;9.258;2023-06-10T12:47:35;28.10;55.80
41756;DHT22;27435;48.480;9.258;2023-06-10T12:50:02;27.90;56.90
41756;DHT22;27435;48.480;9.258;2023-06-10T12:52:28;28.00;56.10
41756;DHT22;27435;48.480;9.258;2023-06-10T12:54:54;28.10;56.10
41756;DHT22;27435;48.480;9.258;2023-06-10T12:57:23;28.10;55.70
41756;DHT22;27435;48.480;9.258;2023-06-10T12:59:49;27.90;56.50
41756;DHT22;27435;48.480;9.258;2023-06-10T13:02:18;27.80;56.40
41756;DHT22;27435;48.480;9.258;2023-06-10T13:04:48;28.20;54.90
41756;DHT22;27435;48.480;9.258;2023-06-10T13:07:15;28.60;54.90
41756;DHT22;27435;48.480;9.258;2023-06-10T13:09:40;29.20;53.30
41756;DHT22;27435;48.480;9.258;2023-06-10T13:12:06;29.50;52.30
41756;DHT22;27435;48.480;9.258;2023-06-10T13:14:33;29.40;51.90
41756;DHT22;27435;48.480;9.258;2023-06-10T13:16:59;29.30;52.00
41756;DHT22;27435;48.480;9.258;2023-06-10T13:19:24;28.80;53.70
41756;DHT22;27435;48.480;9.258;2023-06-10T13:21:51;27.70;54.90
41756;DHT22;27435;48.480;9.258;2023-06-10T13:24:17;27.10;57.00
41756;DHT22;27435;48.480;9.258;2023-06-10T13:26:42;27.10;57.70
41756;DHT22;27435;48.480;9.258;2023-06-10T13:29:08;27.00;58.40
41756;DHT22;27435;48.480;9.258;2023-06-10T13:31:39;27.10;57.90
41756;DHT22;27435;48.480;9.258;2023-06-10T13:34:05;27.20;58.50
41756;DHT22;27435;48.480;9.258;2023-06-10T13:36:31;27.20;57.30
41756;DHT22;27435;48.480;9.258;2023-06-10T13:38:57;27.00;59.20
41756;DHT22;27435;48.480;9.258;2023-06-10T13:41:23;27.00;58.60
41756;DHT22;27435;48.480;9.258;2023-06-10T13:43:48;26.90;58.90
41756;DHT22;27435;48.480;9.258;2023-06-10T13:46:14;27.20;58.20
41756;DHT22;27435;48.480;9.258;2023-06-10T13:48:40;27.40;58.60
41756;DHT22;27435;48.480;9.258;2023-06-10T13:51:05;28.30;59.40
41756;DHT22;27435;48.480;9.258;2023-06-10T13:53:32;29.00;58.70
41756;DHT22;27435;48.480;9.258;2023-06-10T13:55:57;29.10;56.10
41756;DHT22;27435;48.480;9.258;2023-06-10T13:58:23;29.10;57.30
41756;DHT22;27435;48.480;9.258;2023-06-10T14:00:49;29.60;57.30
41756;DHT22;27435;48.480;9.258;2023-06-10T14:03:14;29.80;57.50
41756;DHT22;27435;48.480;9.258;2023-06-10T14:05:40;31.10;51.00
41756;DHT22;27435;48.480;9.258;2023-06-10T14:08:07;32.10;50.00
41756;DHT22;27435;48.480;9.258;2023-06-10T14:10:32;30.70;50.20
41756;DHT22;27435;48.480;9.258;2023-06-10T14:12:58;29.40;52.20
41756;DHT22;27435;48.480;9.258;2023-06-10T14:15:24;28.30;54.90
41756;DHT22;27435;48.480;9.258;2023-06-10T14:17:50;27.50;56.10
41756;DHT22;27435;48.480;9.258;2023-06-10T14:20:15;27.20;56.90
41756;DHT22;27435;48.480;9.258;2023-06-10T14:22:41;27.20;57.70
41756;DHT22;27435;48.480;9.258;2023-06-10T14:25:07;27.20;57.50
41756;DHT22;27435;48.480;9.258;2023-06-10T14:27:33;27.20;57.10
41756;DHT22;27435;48.480;9.258;2023-06-10T14:29:58;27.30;57.40
41756;DHT22;27435;48.480;9.258;2023-06-10T14:32:24;27.80;57.10
41756;DHT22;27435;48.480;9.258;2023-06-10T14:34:49;28.20;56.60
41756;DHT22;27435;48.480;9.258;2023-06-10T14:37:15;28.80;55.80
41756;DHT22;27435;48.480;9.258;2023-06-10T14:39:41;30.00;54.90
41756;DHT22;27435;48.480;9.258;2023-06-10T14:42:07;31.30;52.80
41756;DHT22;27435;48.480;9.258;2023-06-10T14:44:32;32.00;51.90
41756;DHT22;27435;48.480;9.258;2023-06-10T14:46:58;32.00;50.80
41756;DHT22;27435;48.480;9.258;2023-06-10T14:49:23;31.70;51.30
41756;DHT22;27435;48.480;9.258;2023-06-10T14:51:49;31.50;52.30
41756;DHT22;27435;48.480;9.258;2023-06-10T14:54:15;31.30;52.70
41756;DHT22;27435;48.480;9.258;2023-06-10T14:56:41;31.00;53.00
41756;DHT22;27435;48.480;9.258;2023-06-10T14:59:07;30.80;52.80
41756;DHT22;27435;48.480;9.258;2023-06-10T15:01:32;30.50;53.80
41756;DHT22;27435;48.480;9.258;2023-06-10T15:03:58;29.70;55.20
41756;DHT22;27435;48.480;9.258;2023-06-10T15:06:23;30.10;54.90
41756;DHT22;27435;48.480;9.258;2023-06-10T15:08:49;31.10;52.60
41756;DHT22;27435;48.480;9.258;2023-06-10T15:11:15;32.10;50.90
41756;DHT22;27435;48.480;9.258;2023-06-10T15:13:41;32.80;49.30
41756;DHT22;27435;48.480;9.258;2023-06-10T15:16:07;32.90;49.50
41756;DHT22;27435;48.480;9.258;2023-06-10T15:18:33;33.50;48.30
41756;DHT22;27435;48.480;9.258;2023-06-10T15:20:58;33.50;48.10
41756;DHT22;27435;48.480;9.258;2023-06-10T15:23:24;33.20;48.70
41756;DHT22;27435;48.480;9.258;2023-06-10T15:25:50;32.80;49.60
41756;DHT22;27435;48.480;9.258;2023-06-10T15:28:15;33.00;49.70
41756;DHT22;27435;48.480;9.258;2023-06-10T15:30:41;33.20;49.50
41756;DHT22;27435;48.480;9.258;2023-06-10T15:33:07;32.70;51.10
41756;DHT22;27435;48.480;9.258;2023-06-10T15:35:33;33.60;49.00
41756;DHT22;27435;48.480;9.258;2023-06-10T15:37:58;32.40;48.70